Time;durP1;ratioP1;P1;durP2;ratioP2;P2;SDS_P1;SDS_P2;PMS_P1;PMS_P2;Temp;Humidity;BMP_temperature;BMP_pressure;BME280_temperature;BME280_humidity;BME280_pressure;Samples;Min_cycle;Max_cycle;Signal;HPM_P1;HPM_P2
2021/05/01 00:00:58;;;;;;;33.43;19.53;;;6.50;99.90;;;;;;5035680;28;20963;-81
2021/05/01 00:03:24;;;;;;;39.40;21.00;;;6.40;99.90;;;;;;5036048;28;20450;-81
2021/05/01 00:05:50;;;;;;;32.07;19.03;;;6.30;99.90;;;;;;5035736;28;20500;-78
2021/05/01 00:08:17;;;;;;;31.70;19.73;;;6.30;99.90;;;;;;5035763;28;20477;-78
2021/05/01 00:10:44;;;;;;;32.97;19.10;;;6.20;99.90;;;;;;5035725;28;20458;-75
2021/05/01 00:13:11;;;;;;;34.87;20.07;;;6.20;99.90;;;;;;5035647;28;20516;-75
2021/05/01 00:15:37;;;;;;;33.23;19.67;;;6.20;99.90;;;;;;5035635;28;20442;-75
2021/05/01 00:18:04;;;;;;;37.30;21.03;;;6.10;99.90;;;;;;5035540;28;20475;-81
2021/05/01 00:20:30;;;;;;;37.67;20.00;;;6.10;99.90;;;;;;5035217;28;21024;-81
2021/05/01 00:22:56;;;;;;;39.30;20.70;;;6.10;99.90;;;;;;5035134;28;20493;-81
2021/05/01 00:25:24;;;;;;;33.03;19.70;;;6.10;99.90;;;;;;5035581;28;20446;-80
2021/05/01 00:27:50;;;;;;;38.70;21.37;;;6.10;99.90;;;;;;5035446;28;20493;-81
2021/05/01 00:30:16;;;;;;;35.37;20.23;;;6.10;99.90;;;;;;5035522;28;20466;-80
2021/05/01 00:32:43;;;;;;;35.50;19.43;;;6.10;99.90;;;;;;5035413;28;20453;-81
2021/05/01 00:35:10;;;;;;;33.70;20.60;;;6.20;99.90;;;;;;5035289;28;20447;-81
2021/05/01 00:37:36;;;;;;;39.40;20.03;;;6.20;99.90;;;;;;5035168;28;20473;-81
2021/05/01 00:40:03;;;;;;;41.23;21.53;;;6.20;99.90;;;;;;5035188;28;20482;-81
2021/05/01 00:42:30;;;;;;;38.07;22.00;;;6.30;99.90;;;;;;5034805;28;20941;-80
2021/05/01 00:44:56;;;;;;;41.20;20.70;;;6.30;99.90;;;;;;5034824;28;20950;-81
2021/05/01 00:47:23;;;;;;;35.93;20.23;;;6.40;99.90;;;;;;5035014;28;20469;-81
2021/05/01 00:49:49;;;;;;;38.73;20.50;;;6.50;99.90;;;;;;5035028;28;20661;-81
2021/05/01 00:52:15;;;;;;;36.50;20.87;;;6.50;99.90;;;;;;5035061;28;20784;-80
2021/05/01 00:54:42;;;;;;;36.40;20.00;;;6.50;99.90;;;;;;5034990;28;20447;-81
2021/05/01 00:57:08;;;;;;;40.20;20.50;;;6.50;99.90;;;;;;5034795;28;20593;-82
2021/05/01 00:59:36;;;;;;;35.80;20.07;;;6.50;99.90;;;;;;5034450;28;20856;-81
2021/05/01 01:02:02;;;;;;;36.70;21.73;;;6.50;99.90;;;;;;5034762;28;20451;-81
2021/05/01 01:04:28;;;;;;;38.93;20.93;;;6.60;99.90;;;;;;5034660;28;20427;-81
2021/05/01 01:06:55;;;;;;;40.37;21.07;;;6.50;99.90;;;;;;5034346;28;20834;-81
2021/05/01 01:09:21;;;;;;;38.67;20.60;;;6.60;99.90;;;;;;5034880;28;20458;-80
2021/05/01 01:11:47;;;;;;;37.57;20.40;;;6.60;99.90;;;;;;5034265;28;20954;-81
2021/05/01 01:14:14;;;;;;;36.17;19.80;;;6.60;99.90;;;;;;5034451;28;20485;-81
2021/05/01 01:16:44;;;;;;;32.67;19.57;;;6.60;99.90;;;;;;5034384;28;20555;-81
2021/05/01 01:19:11;;;;;;;33.23;18.87;;;6.70;99.90;;;;;;5034481;28;20478;-81
2021/05/01 01:21:42;;;;;;;40.43;21.13;;;6.70;99.90;;;;;;5034041;28;20482;-81
2021/05/01 01:24:10;;;;;;;39.17;21.23;;;6.70;99.90;;;;;;5034430;28;20413;-75
2021/05/01 01:26:37;;;;;;;36.03;20.00;;;6.70;99.90;;;;;;5034204;28;20475;-75
2021/05/01 01:29:05;;;;;;;39.67;21.60;;;6.70;99.90;;;;;;5034223;28;20439;-75
2021/05/01 01:31:31;;;;;;;40.00;21.00;;;6.70;99.90;;;;;;5034144;28;20479;-75
2021/05/01 01:33:57;;;;;;;37.30;21.97;;;6.70;99.90;;;;;;5034114;28;20438;-75
2021/05/01 01:36:23;;;;;;;36.67;20.80;;;6.70;99.90;;;;;;5033995;28;20866;-75
2021/05/01 01:38:50;;;;;;;35.73;20.67;;;6.70;99.90;;;;;;5033672;28;20478;-75
2021/05/01 01:41:17;;;;;;;39.10;21.07;;;6.70;99.90;;;;;;5033733;28;20942;-75
2021/05/01 01:43:43;;;;;;;37.50;21.40;;;6.70;99.90;;;;;;5033707;28;20942;-75
2021/05/01 01:46:09;;;;;;;39.90;21.30;;;6.70;99.90;;;;;;5033878;28;20471;-74
2021/05/01 01:48:35;;;;;;;39.77;21.23;;;6.70;99.90;;;;;;5033648;28;20439;-74
2021/05/01 01:51:02;;;;;;;35.83;21.93;;;6.70;99.90;;;;;;5033709;28;20454;-74
2021/05/01 01:53:28;;;;;;;39.73;22.13;;;6.70;99.90;;;;;;5033493;28;21035;-74
2021/05/01 01:55:54;;;;;;;39.37;21.57;;;6.70;99.90;;;;;;5033725;28;20442;-74
2021/05/01 01:58:22;;;;;;;40.33;21.90;;;6.70;99.90;;;;;;5033703;28;20500;-74
2021/05/01 02:00:49;;;;;;;43.20;22.53;;;6.70;99.90;;;;;;5033402;28;20978;-74
2021/05/01 02:03:17;;;;;;;36.37;21.53;;;6.70;99.90;;;;;;5033671;28;20443;-74
2021/05/01 02:05:44;;;;;;;36.60;20.70;;;6.70;99.90;;;;;;5033352;28;21044;-74
2021/05/01 02:08:11;;;;;;;38.20;20.63;;;6.70;99.90;;;;;;5033341;28;20459;-74
2021/05/01 02:10:37;;;;;;;37.40;19.90;;;6.70;99.90;;;;;;5033599;28;20465;-74
2021/05/01 02:13:04;;;;;;;32.77;19.43;;;6.70;99.90;;;;;;5033546;28;20446;-74
2021/05/01 02:15:32;;;;;;;35.03;19.43;;;6.70;99.90;;;;;;5032850;28;20450;-74
2021/05/01 02:18:00;;;;;;;32.17;17.20;;;6.70;99.90;;;;;;5033416;28;20466;-74
2021/05/01 02:20:28;;;;;;;29.60;17.47;;;6.70;99.90;;;;;;5033422;28;20489;-74
2021/05/01 02:22:56;;;;;;;28.40;16.93;;;6.70;99.90;;;;;;5032993;28;20490;-75
2021/05/01 02:25:23;;;;;;;32.73;17.60;;;6.70;99.90;;;;;;5033387;28;20446;-75
2021/05/01 02:27:50;;;;;;;26.70;15.70;;;6.70;99.90;;;;;;5032999;28;20981;-75
2021/05/01 02:30:18;;;;;;;23.80;13.47;;;6.70;99.90;;;;;;5033336;28;20442;-75
2021/05/01 02:32:47;;;;;;;22.97;13.37;;;6.70;99.90;;;;;;5033357;28;20529;-75
2021/05/01 02:35:15;;;;;;;21.97;13.07;;;6.80;99.90;;;;;;5032961;28;20823;-75
2021/05/01 02:37:42;;;;;;;26.57;13.83;;;6.80;99.90;;;;;;5033177;28;20470;-75
2021/05/01 02:40:11;;;;;;;23.17;13.33;;;6.80;99.90;;;;;;5033186;28;20487;-75
2021/05/01 02:42:38;;;;;;;25.33;14.17;;;6.90;99.90;;;;;;5033208;28;20457;-75
2021/05/01 02:45:05;;;;;;;21.97;13.50;;;6.80;99.90;;;;;;5033176;28;20473;-75
2021/05/01 02:47:31;;;;;;;26.27;14.50;;;6.80;99.90;;;;;;5033077;28;20466;-75
2021/05/01 02:49:58;;;;;;;24.67;15.07;;;6.70;99.90;;;;;;5033183;28;20444;-75
2021/05/01 02:52:25;;;;;;;23.00;14.23;;;6.70;99.90;;;;;;5033148;28;20451;-75
2021/05/01 02:54:51;;;;;;;24.13;14.03;;;6.70;99.90;;;;;;5033119;28;20446;-75
2021/05/01 02:57:17;;;;;;;24.23;14.77;;;6.70;99.90;;;;;;5032718;28;20520;-75
2021/05/01 02:59:43;;;;;;;27.53;15.63;;;6.70;99.90;;;;;;5032980;28;20532;-75
2021/05/01 03:02:09;;;;;;;28.83;15.70;;;6.70;99.90;;;;;;5033070;28;20454;-75
2021/05/01 03:04:36;;;;;;;27.80;15.80;;;6.70;99.90;;;;;;5033021;28;20454;-75
2021/05/01 03:07:03;;;;;;;32.73;17.90;;;6.70;99.90;;;;;;5032608;28;20501;-75
2021/05/01 03:09:29;;;;;;;28.63;15.60;;;6.70;99.90;;;;;;5032966;28;20442;-75
2021/05/01 03:11:56;;;;;;;28.07;15.80;;;6.80;99.90;;;;;;5032646;28;20511;-75
2021/05/01 03:14:25;;;;;;;26.63;16.13;;;6.80;99.90;;;;;;5032588;28;20482;-75
2021/05/01 03:16:51;;;;;;;31.93;18.00;;;6.80;99.90;;;;;;5032468;28;20993;-75
2021/05/01 03:19:18;;;;;;;30.60;17.00;;;6.80;99.90;;;;;;5032514;28;21023;-74
2021/05/01 03:21:44;;;;;;;31.53;17.93;;;6.90;99.90;;;;;;5032552;28;20482;-74
2021/05/01 03:24:12;;;;;;;30.13;17.63;;;6.90;99.90;;;;;;5032802;28;20442;-74
2021/05/01 03:26:39;;;;;;;29.20;17.27;;;6.90;99.90;;;;;;5034643;28;20607;-74
2021/05/01 03:29:05;;;;;;;29.73;17.47;;;6.80;99.90;;;;;;5036530;28;20786;-74
2021/05/01 03:31:31;;;;;;;31.07;18.40;;;6.80;99.90;;;;;;5036448;28;20457;-74
2021/05/01 03:33:58;;;;;;;26.33;15.43;;;6.80;99.90;;;;;;5036385;28;20450;-74
2021/05/01 03:36:24;;;;;;;25.00;14.83;;;6.70;99.90;;;;;;5036282;28;20541;-74
2021/05/01 03:38:50;;;;;;;27.40;15.30;;;6.70;99.90;;;;;;5036226;28;20482;-74
2021/05/01 03:41:18;;;;;;;25.63;15.30;;;6.70;99.90;;;;;;5036302;28;20450;-74
2021/05/01 03:43:44;;;;;;;28.97;15.50;;;6.70;99.90;;;;;;5036214;28;20450;-74
2021/05/01 03:46:10;;;;;;;27.73;16.80;;;6.70;99.90;;;;;;5036106;28;20477;-74
2021/05/01 03:48:37;;;;;;;28.70;14.73;;;6.70;99.90;;;;;;5036200;28;20442;-74
2021/05/01 03:51:04;;;;;;;21.87;13.60;;;6.70;99.90;;;;;;5036124;28;20451;-74
2021/05/01 03:53:31;;;;;;;21.80;13.60;;;6.70;99.90;;;;;;5036089;28;20520;-74
2021/05/01 03:55:57;;;;;;;22.90;13.70;;;6.70;99.90;;;;;;5035675;28;21025;-74
2021/05/01 03:58:24;;;;;;;21.77;13.20;;;6.70;99.90;;;;;;5035999;28;20454;-74
2021/05/01 04:00:51;;;;;;;20.83;11.60;;;6.60;99.90;;;;;;5035863;28;20478;-74
2021/05/01 04:03:17;;;;;;;20.03;12.67;;;6.50;99.90;;;;;;5035917;28;20458;-74
2021/05/01 04:05:43;;;;;;;26.07;15.30;;;6.50;99.90;;;;;;5035894;28;20458;-80
2021/05/01 04:08:10;;;;;;;24.17;14.10;;;6.50;99.90;;;;;;5035716;28;20481;-80
2021/05/01 04:10:36;;;;;;;31.53;15.33;;;6.50;99.90;;;;;;5035782;28;20541;-80
2021/05/01 04:13:02;;;;;;;25.07;14.43;;;6.60;99.90;;;;;;5036299;28;20535;-80
2021/05/01 04:15:30;;;;;;;25.27;13.97;;;6.60;99.90;;;;;;5035675;28;20454;-80
2021/05/01 04:17:56;;;;;;;24.60;14.50;;;6.60;99.90;;;;;;5035564;28;20489;-80
2021/05/01 04:20:22;;;;;;;19.83;11.60;;;6.70;99.90;;;;;;5035520;28;20474;-80
2021/05/01 04:22:49;;;;;;;20.53;11.83;;;6.70;99.90;;;;;;5035092;28;20850;-80
2021/05/01 04:25:15;;;;;;;20.70;13.00;;;6.70;99.90;;;;;;5035504;28;20550;-74
2021/05/01 04:27:42;;;;;;;22.30;12.83;;;6.70;99.90;;;;;;5035121;28;20462;-74
2021/05/01 04:30:09;;;;;;;18.93;12.20;;;6.60;99.90;;;;;;5035405;28;20443;-74
2021/05/01 04:32:36;;;;;;;23.30;13.30;;;6.60;99.90;;;;;;5035358;28;20454;-74
2021/05/01 04:35:03;;;;;;;25.10;14.37;;;6.50;99.90;;;;;;5035035;28;20538;-74
2021/05/01 04:37:29;;;;;;;21.73;13.00;;;6.60;99.90;;;;;;5034549;28;20541;-74
2021/05/01 04:39:55;;;;;;;21.90;12.87;;;6.60;99.90;;;;;;5034805;28;20862;-74
2021/05/01 04:42:21;;;;;;;25.50;13.50;;;6.70;99.90;;;;;;5035165;28;20442;-74
2021/05/01 04:44:48;;;;;;;19.57;11.47;;;6.60;99.90;;;;;;5035094;28;20447;-74
2021/05/01 04:47:15;;;;;;;23.20;12.53;;;6.60;99.90;;;;;;5035039;28;20470;-78
2021/05/01 04:49:43;;;;;;;21.30;12.53;;;6.60;99.90;;;;;;5035030;28;20443;-74
2021/05/01 04:52:09;;;;;;;24.43;14.37;;;6.70;99.90;;;;;;5034914;28;20512;-74
2021/05/01 04:54:36;;;;;;;26.37;14.80;;;6.70;99.90;;;;;;5034926;28;20451;-74
2021/05/01 04:57:02;;;;;;;22.83;13.80;;;6.70;99.90;;;;;;5034853;28;20478;-75
2021/05/01 04:59:28;;;;;;;30.30;15.20;;;6.70;99.90;;;;;;5034735;28;20478;-75
2021/05/01 05:01:55;;;;;;;22.87;13.73;;;6.70;99.90;;;;;;5034831;28;20431;-75
2021/05/01 05:04:21;;;;;;;23.43;13.37;;;6.70;99.90;;;;;;5034728;28;20454;-75
2021/05/01 05:06:48;;;;;;;27.90;15.70;;;6.70;99.90;;;;;;5034307;28;20516;-75
2021/05/01 05:09:14;;;;;;;26.33;14.47;;;6.80;99.90;;;;;;5034644;28;20443;-75
2021/05/01 05:11:40;;;;;;;25.67;14.97;;;6.70;99.90;;;;;;5034560;28;20442;-75
2021/05/01 05:14:07;;;;;;;29.37;15.90;;;6.70;99.90;;;;;;5034552;28;20451;-75
2021/05/01 05:16:33;;;;;;;27.57;14.37;;;6.60;99.90;;;;;;5034421;28;20475;-75
2021/05/01 05:18:59;;;;;;;26.67;15.30;;;6.60;99.90;;;;;;5034345;28;20493;-75
2021/05/01 05:21:25;;;;;;;26.60;15.33;;;6.60;99.90;;;;;;5034136;28;20486;-75
2021/05/01 05:23:52;;;;;;;29.97;15.03;;;6.60;99.90;;;;;;5034003;28;20454;-75
2021/05/01 05:26:18;;;;;;;25.70;14.63;;;6.70;99.90;;;;;;5034244;28;20467;-75
2021/05/01 05:28:45;;;;;;;26.30;15.10;;;6.70;99.90;;;;;;5034251;28;20453;-75
2021/05/01 05:31:11;;;;;;;27.93;15.60;;;6.70;99.90;;;;;;5034163;28;20464;-75
2021/05/01 05:33:37;;;;;;;27.73;16.23;;;6.80;99.90;;;;;;5034177;28;20447;-75
2021/05/01 05:36:04;;;;;;;28.13;15.60;;;6.80;99.90;;;;;;5034000;28;20450;-75
2021/05/01 05:38:30;;;;;;;26.70;14.80;;;6.80;99.90;;;;;;5034053;28;20457;-75
2021/05/01 05:40:57;;;;;;;28.73;15.60;;;6.90;99.90;;;;;;5033661;28;20989;-75
2021/05/01 05:43:24;;;;;;;29.27;15.63;;;6.80;99.90;;;;;;5033720;28;20443;-75
2021/05/01 05:45:50;;;;;;;28.07;15.70;;;6.80;99.90;;;;;;5033555;28;21049;-75
2021/05/01 05:48:16;;;;;;;31.70;17.93;;;6.90;99.90;;;;;;5033579;28;21044;-75
2021/05/01 05:50:43;;;;;;;26.57;15.00;;;6.90;99.90;;;;;;5033012;28;20438;-75
2021/05/01 05:53:09;;;;;;;33.70;15.87;;;6.80;99.90;;;;;;5033797;28;20453;-75
2021/05/01 05:55:35;;;;;;;32.27;16.73;;;6.80;99.90;;;;;;5034603;28;20777;-75
2021/05/01 05:58:02;;;;;;;30.73;17.17;;;6.90;99.90;;;;;;5033350;28;20985;-75
2021/05/01 06:00:29;;;;;;;28.20;17.50;;;6.90;99.90;;;;;;5033640;28;20470;-75
2021/05/01 06:02:59;;;;;;;31.37;17.70;;;6.90;99.90;;;;;;5033375;28;20446;-75
2021/05/01 06:05:28;;;;;;;28.43;15.90;;;7.00;99.90;;;;;;5034429;28;20458;-75
2021/05/01 06:07:58;;;;;;;28.13;17.10;;;7.00;99.90;;;;;;5033455;28;20467;-75
2021/05/01 06:10:25;;;;;;;29.37;17.20;;;7.00;99.90;;;;;;5033239;28;20929;-75
2021/05/01 06:12:53;;;;;;;32.13;16.70;;;7.10;99.90;;;;;;5033581;28;20473;-74
2021/05/01 06:15:20;;;;;;;28.33;16.43;;;7.00;99.90;;;;;;5033439;28;20442;-74
2021/05/01 06:17:49;;;;;;;28.67;16.10;;;7.10;99.90;;;;;;5033387;28;20476;-74
2021/05/01 06:20:16;;;;;;;28.47;16.83;;;7.10;99.90;;;;;;5033707;28;20478;-80
2021/05/01 06:22:42;;;;;;;27.53;16.27;;;7.10;99.90;;;;;;5033161;28;20489;-79
2021/05/01 06:25:11;;;;;;;25.43;14.90;;;7.10;99.90;;;;;;5033181;28;20972;-80
2021/05/01 06:27:37;;;;;;;29.40;16.40;;;7.10;99.90;;;;;;5033295;28;20469;-80
2021/05/01 06:30:05;;;;;;;29.73;16.80;;;7.10;99.90;;;;;;5033311;28;20438;-79
2021/05/01 06:32:32;;;;;;;27.30;15.70;;;7.20;99.90;;;;;;5033333;28;20439;-80
2021/05/01 06:35:00;;;;;;;23.37;15.50;;;7.30;99.90;;;;;;5033541;28;20439;-80
2021/05/01 06:37:28;;;;;;;28.67;15.70;;;7.40;99.90;;;;;;5032934;28;20478;-80
2021/05/01 06:40:07;;;;;;;25.40;14.33;;;7.40;99.90;;;;;;5032924;28;20471;-80
2021/05/01 06:42:40;;;;;;;28.53;14.90;;;7.40;99.90;;;;;;5033473;28;20430;-79
2021/05/01 06:45:09;;;;;;;27.30;14.57;;;7.40;99.90;;;;;;5033096;28;20518;-80
2021/05/01 06:47:47;;;;;;;27.63;16.10;;;7.30;99.90;;;;;;5033045;28;20470;-80
2021/05/01 06:50:14;;;;;;;30.73;16.23;;;7.30;99.90;;;;;;5033142;28;20549;-80
2021/05/01 06:52:42;;;;;;;26.03;14.90;;;7.40;99.90;;;;;;5032840;28;20498;-80
2021/05/01 06:55:10;;;;;;;29.20;16.10;;;7.40;99.90;;;;;;5033112;28;20431;-80
2021/05/01 06:57:37;;;;;;;28.30;15.93;;;7.50;99.90;;;;;;5033023;28;20466;-80
2021/05/01 07:00:06;;;;;;;26.57;15.50;;;7.40;99.90;;;;;;5032660;28;20978;-79
2021/05/01 07:02:35;;;;;;;23.57;14.93;;;7.50;99.90;;;;;;5036607;28;20446;-80
2021/05/01 07:05:03;;;;;;;28.50;16.23;;;7.50;99.90;;;;;;5036962;28;20536;-79
2021/05/01 07:07:30;;;;;;;24.77;14.67;;;7.50;99.90;;;;;;5036511;28;20470;-80
2021/05/01 07:09:57;;;;;;;24.10;14.50;;;7.50;99.90;;;;;;5036875;28;20512;-79
2021/05/01 07:12:25;;;;;;;26.40;15.80;;;7.60;99.90;;;;;;5036474;28;20450;-80
2021/05/01 07:14:51;;;;;;;25.17;15.27;;;7.60;99.90;;;;;;5036440;28;20473;-80
2021/05/01 07:17:19;;;;;;;26.47;14.60;;;7.50;99.90;;;;;;5036677;28;20478;-80
2021/05/01 07:19:46;;;;;;;22.63;14.50;;;7.40;99.90;;;;;;5036599;28;20478;-80
2021/05/01 07:22:14;;;;;;;25.63;14.70;;;7.40;99.90;;;;;;5036123;28;21016;-80
2021/05/01 07:24:42;;;;;;;25.97;14.90;;;7.30;99.90;;;;;;5036275;28;20949;-80
2021/05/01 07:27:10;;;;;;;24.23;14.70;;;7.40;99.90;;;;;;5036477;28;20516;-80
2021/05/01 07:29:38;;;;;;;25.90;15.67;;;7.50;99.90;;;;;;5036539;28;20446;-80
2021/05/01 07:32:08;;;;;;;29.27;16.03;;;7.50;99.90;;;;;;5036148;28;20948;-80
2021/05/01 07:34:35;;;;;;;28.43;15.70;;;7.50;99.90;;;;;;5036409;28;20458;-80
2021/05/01 07:37:05;;;;;;;25.73;14.77;;;7.50;99.90;;;;;;5036352;28;20589;-80
2021/05/01 07:39:33;;;;;;;23.00;13.80;;;7.60;99.90;;;;;;5036362;28;20466;-80
2021/05/01 07:42:03;;;;;;;25.90;14.23;;;7.70;99.90;;;;;;5035982;28;20942;-80
2021/05/01 07:44:31;;;;;;;24.30;14.23;;;7.70;99.90;;;;;;5036270;28;20482;-80
2021/05/01 07:46:59;;;;;;;29.60;15.77;;;7.60;99.90;;;;;;5036227;28;20458;-80
2021/05/01 07:49:26;;;;;;;24.90;14.33;;;7.60;99.90;;;;;;5035921;28;20496;-80
2021/05/01 07:51:53;;;;;;;30.63;16.50;;;7.60;99.90;;;;;;5036147;28;20481;-80
2021/05/01 07:54:19;;;;;;;26.43;15.30;;;7.60;99.90;;;;;;5036029;28;20457;-80
2021/05/01 07:56:47;;;;;;;34.77;17.83;;;7.50;99.90;;;;;;5035956;28;20466;-80
2021/05/01 07:59:13;;;;;;;31.10;16.80;;;7.50;99.90;;;;;;5035550;28;20824;-80
2021/05/01 08:01:39;;;;;;;31.53;18.63;;;7.50;99.90;;;;;;5035874;28;20447;-80
2021/05/01 08:04:06;;;;;;;34.97;18.60;;;7.50;99.90;;;;;;5035559;28;20934;-80
2021/05/01 08:06:32;;;;;;;33.90;19.17;;;7.60;99.90;;;;;;5035757;28;20470;-80
2021/05/01 08:08:58;;;;;;;29.30;16.67;;;7.60;99.90;;;;;;5035784;28;20457;-80
2021/05/01 08:11:25;;;;;;;32.00;17.40;;;7.60;99.90;;;;;;5035475;28;20450;-80
2021/05/01 08:13:52;;;;;;;32.97;18.50;;;7.60;99.90;;;;;;5034342;28;20957;-80
2021/05/01 08:16:18;;;;;;;28.63;18.00;;;7.70;99.90;;;;;;5035591;28;20466;-80
2021/05/01 08:18:44;;;;;;;28.87;16.27;;;7.70;99.90;;;;;;5035623;28;20454;-80
2021/05/01 08:21:11;;;;;;;31.40;16.87;;;7.70;99.90;;;;;;5035000;28;21017;-80
2021/05/01 08:23:37;;;;;;;29.67;17.20;;;7.70;99.90;;;;;;5035558;28;20445;-80
2021/05/01 08:26:05;;;;;;;30.73;16.70;;;7.70;99.90;;;;;;5035093;28;20942;-80
2021/05/01 08:28:31;;;;;;;26.83;15.50;;;7.70;99.90;;;;;;5035102;28;20814;-80
2021/05/01 08:30:59;;;;;;;31.90;18.77;;;7.70;99.90;;;;;;5035370;28;20482;-80
2021/05/01 08:33:25;;;;;;;29.67;15.70;;;7.70;99.90;;;;;;5035099;28;20845;-79
2021/05/01 08:35:52;;;;;;;33.77;17.53;;;7.70;99.90;;;;;;5035235;28;20439;-78
2021/05/01 08:38:20;;;;;;;30.30;16.83;;;7.70;99.90;;;;;;5035039;28;20785;-78
2021/05/01 08:40:46;;;;;;;29.00;17.03;;;7.70;99.90;;;;;;5034808;28;21004;-78
2021/05/01 08:43:12;;;;;;;31.80;17.10;;;7.70;99.90;;;;;;5035149;28;20431;-78
2021/05/01 08:45:41;;;;;;;29.90;16.43;;;7.80;99.90;;;;;;5035085;28;20419;-78
2021/05/01 08:48:08;;;;;;;28.87;16.70;;;7.80;99.90;;;;;;5035020;28;20494;-78
2021/05/01 08:50:39;;;;;;;33.17;18.80;;;8.00;99.90;;;;;;5034970;28;20500;-78
2021/05/01 08:53:07;;;;;;;27.53;15.53;;;8.00;99.90;;;;;;5034980;28;20434;-78
2021/05/01 08:55:36;;;;;;;31.33;17.20;;;8.10;99.90;;;;;;5035002;28;20442;-78
2021/05/01 08:58:03;;;;;;;27.57;16.93;;;8.20;99.90;;;;;;5034529;28;20990;-78
2021/05/01 09:00:31;;;;;;;31.23;18.73;;;8.20;99.90;;;;;;5034707;28;20469;-78
2021/05/01 09:03:02;;;;;;;29.93;18.07;;;8.20;99.90;;;;;;5034713;28;20431;-79
2021/05/01 09:05:30;;;;;;;27.40;16.67;;;8.30;99.90;;;;;;5034500;28;20426;-78
2021/05/01 09:07:57;;;;;;;28.20;15.90;;;8.30;99.90;;;;;;5034663;28;20557;-78
2021/05/01 09:10:24;;;;;;;23.80;14.90;;;8.40;99.90;;;;;;5034312;28;20423;-76
2021/05/01 09:12:51;;;;;;;24.73;15.27;;;8.50;99.90;;;;;;5034312;28;20434;-75
2021/05/01 09:15:22;;;;;;;24.83;14.70;;;8.50;99.90;;;;;;5034572;28;20442;-76
2021/05/01 09:17:58;;;;;;;25.63;14.90;;;8.40;99.90;;;;;;5034455;28;20474;-76
2021/05/01 09:20:24;;;;;;;24.80;15.00;;;8.40;99.90;;;;;;5034405;28;20466;-76
2021/05/01 09:22:58;;;;;;;21.90;14.63;;;8.50;99.90;;;;;;5033987;28;20486;-76
2021/05/01 09:25:26;;;;;;;22.77;13.20;;;8.40;99.90;;;;;;5033932;28;20423;-76
2021/05/01 09:28:03;;;;;;;25.07;14.43;;;8.60;99.90;;;;;;5033943;28;20830;-76
2021/05/01 09:30:32;;;;;;;29.00;14.47;;;8.50;99.90;;;;;;5033831;28;20431;-75
2021/05/01 09:33:24;;;;;;;23.10;14.67;;;8.60;99.90;;;;;;5035078;28;20756;-75
2021/05/01 09:35:55;;;;;;;19.00;12.87;;;8.70;99.90;;;;;;5034236;28;20446;-76
2021/05/01 09:38:22;;;;;;;24.40;13.63;;;8.70;99.90;;;;;;5033756;28;20434;-75
2021/05/01 09:40:49;;;;;;;22.57;13.33;;;8.80;99.90;;;;;;5033978;28;20471;-75
2021/05/01 09:43:16;;;;;;;23.50;13.93;;;8.70;99.90;;;;;;5033993;28;20431;-76
2021/05/01 09:45:43;;;;;;;23.07;14.30;;;8.70;99.90;;;;;;5033626;28;20954;-76
2021/05/01 09:48:14;;;;;;;21.27;13.80;;;8.80;99.90;;;;;;5033574;28;20993;-75
2021/05/01 09:50:41;;;;;;;20.47;13.37;;;8.70;99.90;;;;;;5033764;28;20458;-76
2021/05/01 09:53:12;;;;;;;23.97;14.27;;;8.70;99.90;;;;;;5033739;28;20412;-76
2021/05/01 09:55:47;;;;;;;20.07;13.40;;;8.90;99.90;;;;;;5033886;28;20525;-75
2021/05/01 09:58:15;;;;;;;26.10;15.17;;;9.00;99.90;;;;;;5033737;28;20474;-75
2021/05/01 10:00:41;;;;;;;24.33;13.93;;;8.90;99.90;;;;;;5033617;28;20467;-76
2021/05/01 10:03:24;;;;;;;20.20;12.80;;;9.00;99.90;;;;;;5034682;28;20443;-77
2021/05/01 10:05:52;;;;;;;19.53;12.97;;;9.00;99.90;;;;;;5033208;28;20437;-76
2021/05/01 10:08:20;;;;;;;22.53;13.73;;;9.00;99.90;;;;;;5033546;28;20434;-77
2021/05/01 10:10:49;;;;;;;19.40;12.70;;;9.00;99.90;;;;;;5033650;28;20435;-77
2021/05/01 10:13:16;;;;;;;19.13;12.50;;;9.10;99.90;;;;;;5033594;28;20466;-77
2021/05/01 10:15:43;;;;;;;18.80;12.97;;;9.10;99.90;;;;;;5033499;28;20423;-77
2021/05/01 10:18:12;;;;;;;17.30;12.13;;;9.10;99.90;;;;;;5033410;28;20467;-77
2021/05/01 10:20:46;;;;;;;17.70;11.53;;;9.20;99.90;;;;;;5033736;28;20474;-77
2021/05/01 10:23:12;;;;;;;18.00;12.37;;;9.20;99.90;;;;;;5033372;28;20854;-77
2021/05/01 10:25:39;;;;;;;18.10;11.90;;;9.30;99.90;;;;;;5033445;28;20431;-77
2021/05/01 10:28:11;;;;;;;18.80;12.30;;;9.30;99.90;;;;;;5033240;28;20466;-76
2021/05/01 10:30:41;;;;;;;16.60;12.07;;;9.30;99.90;;;;;;5034090;28;20435;-77
2021/05/01 10:33:23;;;;;;;20.57;12.27;;;9.40;99.90;;;;;;5032912;28;20439;-78
2021/05/01 10:36:02;;;;;;;17.27;11.80;;;9.60;99.90;;;;;;5032724;28;20435;-77
2021/05/01 10:38:29;;;;;;;19.07;13.47;;;9.80;99.90;;;;;;5032989;28;20450;-77
2021/05/01 10:40:57;;;;;;;17.40;12.17;;;9.90;99.90;;;;;;5033177;28;20482;-76
2021/05/01 10:43:25;;;;;;;18.37;13.70;;;10.10;99.90;;;;;;5033271;28;20439;-77
2021/05/01 10:45:54;;;;;;;19.30;12.17;;;10.20;99.90;;;;;;5033426;28;20419;-77
2021/05/01 10:48:22;;;;;;;17.53;12.60;;;10.50;99.90;;;;;;5033181;28;20760;-77
2021/05/01 10:51:00;;;;;;;18.87;13.00;;;10.40;99.90;;;;;;5033214;28;20481;-77
2021/05/01 10:53:27;;;;;;;17.60;12.00;;;10.40;99.90;;;;;;5032890;28;20427;-77
2021/05/01 10:55:55;;;;;;;18.87;12.13;;;10.20;99.90;;;;;;5032718;28;20446;-77
2021/05/01 10:58:33;;;;;;;16.57;11.63;;;10.30;99.90;;;;;;5032811;28;20926;-77
2021/05/01 11:01:00;;;;;;;17.33;11.30;;;10.40;99.90;;;;;;5033041;28;20474;-77
2021/05/01 11:03:27;;;;;;;22.50;13.73;;;10.40;99.90;;;;;;5033113;28;20537;-77
2021/05/01 11:05:55;;;;;;;18.40;11.17;;;10.40;99.90;;;;;;5032697;28;20430;-77
2021/05/01 11:08:32;;;;;;;18.93;12.80;;;10.50;99.90;;;;;;5033051;28;20437;-76
2021/05/01 11:10:58;;;;;;;21.30;14.33;;;10.50;99.90;;;;;;5032784;28;20427;-76
2021/05/01 11:13:26;;;;;;;23.20;15.00;;;10.50;99.90;;;;;;5032966;28;20465;-76
2021/05/01 11:15:57;;;;;;;23.10;14.47;;;10.50;99.90;;;;;;5032945;28;20431;-77
2021/05/01 11:18:26;;;;;;;21.40;14.60;;;10.50;99.90;;;;;;5033008;28;20427;-77
2021/05/01 11:20:58;;;;;;;22.33;14.07;;;10.50;99.90;;;;;;5032653;28;20573;-78
2021/05/01 11:23:27;;;;;;;23.47;15.07;;;10.70;99.90;;;;;;5032589;28;20429;-77
2021/05/01 11:25:56;;;;;;;25.07;15.30;;;10.60;99.90;;;;;;5032834;28;20427;-77
2021/05/01 11:28:24;;;;;;;26.50;16.23;;;10.60;99.90;;;;;;5032826;28;20438;-77
2021/05/01 11:30:52;;;;;;;23.73;15.17;;;10.60;99.90;;;;;;5032806;28;20443;-77
2021/05/01 11:33:21;;;;;;;19.83;14.30;;;10.70;99.90;;;;;;5032786;28;20514;-77
2021/05/01 11:35:48;;;;;;;20.07;14.60;;;10.80;99.90;;;;;;5032683;28;20443;-77
2021/05/01 11:38:23;;;;;;;22.67;14.90;;;10.80;99.90;;;;;;5032670;28;20506;-77
2021/05/01 11:40:53;;;;;;;21.27;14.40;;;10.80;99.90;;;;;;5033465;28;20499;-77
2021/05/01 11:43:20;;;;;;;21.10;14.53;;;10.80;99.90;;;;;;5032736;28;20481;-77
2021/05/01 11:45:51;;;;;;;23.00;14.63;;;10.80;99.90;;;;;;5032964;28;20450;-77
2021/05/01 11:48:28;;;;;;;24.43;15.20;;;10.80;99.90;;;;;;5033964;28;20435;-77
2021/05/01 11:50:55;;;;;;;22.33;15.23;;;10.80;99.90;;;;;;5036081;28;20437;-77
2021/05/01 11:53:32;;;;;;;22.43;15.20;;;10.70;99.90;;;;;;5035881;28;20956;-77
2021/05/01 11:56:04;;;;;;;24.00;15.50;;;10.80;99.90;;;;;;5035749;28;20434;-77
2021/05/01 11:58:32;;;;;;;22.67;14.27;;;10.80;99.90;;;;;;5036111;28;20438;-77
2021/05/01 12:01:15;;;;;;;26.60;16.50;;;10.90;99.90;;;;;;5035583;28;20489;-77
2021/05/01 12:03:43;;;;;;;25.63;16.57;;;10.80;99.90;;;;;;5035661;28;20437;-77
2021/05/01 12:06:18;;;;;;;25.10;16.67;;;10.90;99.90;;;;;;5035800;28;20450;-77
2021/05/01 12:08:45;;;;;;;25.57;16.00;;;11.00;99.90;;;;;;5035903;28;20439;-77
2021/05/01 12:11:12;;;;;;;24.73;15.30;;;10.90;99.90;;;;;;5035493;28;20825;-77
2021/05/01 12:13:41;;;;;;;24.70;15.83;;;10.90;99.90;;;;;;5035780;28;20447;-77
2021/05/01 12:16:18;;;;;;;26.93;16.43;;;10.90;99.90;;;;;;5035597;28;20490;-77
2021/05/01 12:18:47;;;;;;;26.70;16.70;;;10.90;99.90;;;;;;5035671;28;20438;-77
2021/05/01 12:21:17;;;;;;;25.60;16.83;;;10.80;99.90;;;;;;5035074;28;21079;-77
2021/05/01 12:23:45;;;;;;;29.63;17.57;;;10.80;99.90;;;;;;5035592;28;20458;-78
2021/05/01 12:26:36;;;;;;;28.73;17.40;;;10.80;99.90;;;;;;5035590;28;20520;-77
2021/05/01 12:29:27;;;;;;;26.30;16.43;;;10.80;99.90;;;;;;5035510;28;20426;-77
2021/05/01 12:31:55;;;;;;;26.57;16.53;;;10.80;99.90;;;;;;5035442;28;20423;-77
2021/05/01 12:34:43;;;;;;;25.63;16.20;;;10.90;99.90;;;;;;5035326;28;20446;-77
2021/05/01 12:37:11;;;;;;;25.00;15.90;;;11.00;99.90;;;;;;5034817;28;20470;-77
2021/05/01 12:39:39;;;;;;;26.30;16.50;;;11.10;99.90;;;;;;5035205;28;20453;-77